CEB658 RPVA-RPLL
Flight info
| Callsign | CEB658 |
|---|---|
| Flight time | 0h 57m |
| Altitude | 36000 |
| Route | MALAG5R MALAG W9 AKDAP AKDAP5R |
| Aircraft | A20N/M-SDE2E3FGHIRWXY/LB1 |
Departure
| Time | 2026-04-20 06:58 |
|---|---|
| Airport | Daniel Z. Romualdez Airport (RPVA) |
Arrival
| Time | 2026-04-20 07:55 |
|---|---|
| Airport | Ninoy Aquino International Airport (RPLL) |
| Time | Latitude | Longitude | Altitude | Speed | Heading |
|---|---|---|---|---|---|
| 2026-04-20 06:40 | 11.22684 | 125.02653 | 16 ft | 0 kts | 308° |
| 2026-04-20 06:50 | 11.22677 | 125.02666 | 16 ft | 2 kts | 281° |
| 2026-04-20 06:50 | 11.22676 | 125.02681 | 16 ft | 2 kts | 244° |
| 2026-04-20 06:51 | 11.22686 | 125.02692 | 18 ft | 2 kts | 195° |
| 2026-04-20 06:51 | 11.22687 | 125.02693 | 18 ft | 0 kts | 194° |
| 2026-04-20 06:55 | 11.22685 | 125.02692 | 16 ft | 1 kts | 194° |
| 2026-04-20 06:55 | 11.22654 | 125.02687 | 16 ft | 8 kts | 190° |
| 2026-04-20 06:55 | 11.22581 | 125.02708 | 17 ft | 14 kts | 128° |
| 2026-04-20 06:56 | 11.22485 | 125.02755 | 17 ft | 19 kts | 181° |
| 2026-04-20 06:56 | 11.22333 | 125.02745 | 17 ft | 25 kts | 185° |
| 2026-04-20 06:56 | 11.22144 | 125.02734 | 18 ft | 29 kts | 183° |
| 2026-04-20 06:56 | 11.21959 | 125.02724 | 17 ft | 13 kts | 182° |
| 2026-04-20 06:57 | 11.21861 | 125.02736 | 16 ft | 15 kts | 150° |
| 2026-04-20 06:57 | 11.21817 | 125.02707 | 18 ft | 10 kts | 333° |
| 2026-04-20 06:57 | 11.21865 | 125.02716 | 16 ft | 0 kts | 5° |
| 2026-04-20 06:57 | 11.21970 | 125.02723 | 17 ft | 49 kts | 4° |
| 2026-04-20 06:58 | 11.22585 | 125.02763 | 18 ft | 124 kts | 2° |
| 2026-04-20 06:58 | 11.23620 | 125.02831 | 225 ft | 162 kts | 5° |
| 2026-04-20 06:58 | 11.24783 | 125.02918 | 739 ft | 177 kts | 6° |
| 2026-04-20 06:58 | 11.26055 | 125.03020 | 1378 ft | 188 kts | 5° |
| 2026-04-20 06:59 | 11.27391 | 125.03083 | 2022 ft | 195 kts | 2° |
| 2026-04-20 06:59 | 11.28299 | 125.03093 | 2501 ft | 200 kts | 1° |
| 2026-04-20 06:59 | 11.29720 | 125.03064 | 3288 ft | 207 kts | 360° |
| 2026-04-20 06:59 | 11.31678 | 125.02942 | 4288 ft | 219 kts | 356° |
| 2026-04-20 07:00 | 11.31727 | 125.02938 | 4314 ft | 219 kts | 356° |
| 2026-04-20 07:00 | 11.32094 | 125.02903 | 4501 ft | 222 kts | 356° |
| 2026-04-20 07:00 | 11.32920 | 125.02827 | 4930 ft | 228 kts | 356° |
| 2026-04-20 07:00 | 11.33564 | 125.02761 | 5210 ft | 235 kts | 353° |
| 2026-04-20 07:01 | 11.35167 | 125.02136 | 5759 ft | 260 kts | 328° |
| 2026-04-20 07:01 | 11.36653 | 125.00959 | 6364 ft | 278 kts | 320° |
| 2026-04-20 07:01 | 11.38060 | 124.99596 | 7193 ft | 282 kts | 316° |
| 2026-04-20 07:01 | 11.39440 | 124.98171 | 8072 ft | 285 kts | 315° |
| 2026-04-20 07:02 | 11.40854 | 124.96700 | 8913 ft | 290 kts | 315° |
| 2026-04-20 07:02 | 11.42274 | 124.95233 | 9761 ft | 294 kts | 316° |
| 2026-04-20 07:02 | 11.43746 | 124.93729 | 10377 ft | 306 kts | 315° |
| 2026-04-20 07:02 | 11.45294 | 124.92156 | 10634 ft | 329 kts | 315° |
| 2026-04-20 07:03 | 11.46976 | 124.90450 | 10988 ft | 346 kts | 315° |
| 2026-04-20 07:03 | 11.48694 | 124.88708 | 11712 ft | 349 kts | 315° |
| 2026-04-20 07:03 | 11.50411 | 124.86967 | 12455 ft | 353 kts | 315° |
| 2026-04-20 07:03 | 11.52188 | 124.85165 | 13175 ft | 358 kts | 314° |
| 2026-04-20 07:04 | 11.53946 | 124.83380 | 13865 ft | 361 kts | 314° |
| 2026-04-20 07:04 | 11.55741 | 124.81558 | 14493 ft | 365 kts | 314° |
| 2026-04-20 07:04 | 11.57572 | 124.79734 | 15086 ft | 370 kts | 317° |
| 2026-04-20 07:04 | 11.59609 | 124.78123 | 15668 ft | 375 kts | 326° |
| 2026-04-20 07:05 | 11.61826 | 124.76650 | 16258 ft | 379 kts | 326° |
| 2026-04-20 07:05 | 11.64010 | 124.75187 | 16806 ft | 382 kts | 326° |
| 2026-04-20 07:05 | 11.66251 | 124.73679 | 17357 ft | 386 kts | 326° |
| 2026-04-20 07:05 | 11.68522 | 124.72149 | 17885 ft | 390 kts | 326° |
| 2026-04-20 07:06 | 11.70618 | 124.70737 | 18339 ft | 394 kts | 326° |
| 2026-04-20 07:06 | 11.72940 | 124.69172 | 18807 ft | 397 kts | 326° |
| 2026-04-20 07:06 | 11.75232 | 124.67628 | 19255 ft | 400 kts | 326° |
| 2026-04-20 07:06 | 11.77569 | 124.66053 | 19701 ft | 403 kts | 326° |
| 2026-04-20 07:07 | 11.79918 | 124.64469 | 20148 ft | 406 kts | 326° |
| 2026-04-20 07:07 | 11.82293 | 124.62868 | 20591 ft | 410 kts | 326° |
| 2026-04-20 07:07 | 11.84684 | 124.61255 | 21028 ft | 413 kts | 326° |
| 2026-04-20 07:07 | 11.87074 | 124.59643 | 21454 ft | 416 kts | 326° |
| 2026-04-20 07:08 | 11.89492 | 124.58011 | 21887 ft | 419 kts | 326° |
| 2026-04-20 07:08 | 11.91959 | 124.56347 | 22304 ft | 423 kts | 326° |
| 2026-04-20 07:08 | 11.94421 | 124.54685 | 22728 ft | 426 kts | 326° |
| 2026-04-20 07:08 | 11.96893 | 124.53016 | 23160 ft | 429 kts | 326° |
| 2026-04-20 07:09 | 11.99387 | 124.51332 | 23553 ft | 432 kts | 326° |
| 2026-04-20 07:09 | 12.01913 | 124.49626 | 23928 ft | 433 kts | 326° |
| 2026-04-20 07:09 | 12.04430 | 124.47926 | 24311 ft | 435 kts | 326° |
| 2026-04-20 07:09 | 12.06962 | 124.46215 | 24694 ft | 437 kts | 326° |
| 2026-04-20 07:10 | 12.09513 | 124.44492 | 25044 ft | 439 kts | 326° |
| 2026-04-20 07:10 | 12.12063 | 124.42768 | 25409 ft | 441 kts | 326° |
| 2026-04-20 07:10 | 12.14617 | 124.41040 | 25744 ft | 443 kts | 325° |
| 2026-04-20 07:10 | 12.17196 | 124.39296 | 26084 ft | 445 kts | 325° |
| 2026-04-20 07:11 | 12.19782 | 124.37546 | 26414 ft | 447 kts | 325° |
| 2026-04-20 07:11 | 12.22357 | 124.35804 | 26733 ft | 449 kts | 325° |
| 2026-04-20 07:11 | 12.24968 | 124.34037 | 27048 ft | 451 kts | 325° |
| 2026-04-20 07:11 | 12.27577 | 124.32271 | 27362 ft | 453 kts | 325° |
| 2026-04-20 07:12 | 12.30245 | 124.30464 | 27662 ft | 455 kts | 324° |
| 2026-04-20 07:12 | 12.32853 | 124.28698 | 27957 ft | 457 kts | 324° |
| 2026-04-20 07:12 | 12.35531 | 124.26884 | 28264 ft | 459 kts | 324° |
| 2026-04-20 07:12 | 12.38152 | 124.25025 | 28557 ft | 460 kts | 320° |
| 2026-04-20 07:13 | 12.40682 | 124.23038 | 28852 ft | 462 kts | 320° |
| 2026-04-20 07:13 | 12.43245 | 124.21035 | 29137 ft | 464 kts | 320° |
| 2026-04-20 07:13 | 12.45823 | 124.19025 | 29418 ft | 466 kts | 320° |
| 2026-04-20 07:13 | 12.48423 | 124.16996 | 29707 ft | 468 kts | 320° |
| 2026-04-20 07:14 | 12.51015 | 124.14974 | 29857 ft | 469 kts | 320° |
| 2026-04-20 07:14 | 12.56181 | 124.10939 | 29892 ft | 469 kts | 320° |
| 2026-04-20 07:15 | 12.61364 | 124.06888 | 29897 ft | 469 kts | 320° |
| 2026-04-20 07:15 | 12.66548 | 124.02834 | 29897 ft | 469 kts | 320° |
| 2026-04-20 07:16 | 12.71727 | 123.98781 | 29892 ft | 469 kts | 320° |
| 2026-04-20 07:16 | 12.76905 | 123.94728 | 29898 ft | 469 kts | 320° |
| 2026-04-20 07:17 | 12.82112 | 123.90650 | 29897 ft | 468 kts | 320° |
| 2026-04-20 07:17 | 12.87294 | 123.86588 | 29888 ft | 468 kts | 320° |
| 2026-04-20 07:18 | 12.92451 | 123.82544 | 29896 ft | 469 kts | 320° |
| 2026-04-20 07:18 | 12.97650 | 123.78466 | 29889 ft | 468 kts | 320° |
| 2026-04-20 07:19 | 13.02831 | 123.74399 | 29887 ft | 469 kts | 320° |
| 2026-04-20 07:19 | 13.08003 | 123.70337 | 29890 ft | 469 kts | 320° |
| 2026-04-20 07:20 | 13.13174 | 123.66239 | 29888 ft | 469 kts | 318° |
| 2026-04-20 07:20 | 13.18109 | 123.61929 | 29888 ft | 468 kts | 317° |
| 2026-04-20 07:21 | 13.23047 | 123.57576 | 29897 ft | 468 kts | 317° |
| 2026-04-20 07:21 | 13.28025 | 123.53237 | 29896 ft | 469 kts | 317° |
| 2026-04-20 07:22 | 13.32999 | 123.48915 | 29895 ft | 469 kts | 317° |
| 2026-04-20 07:22 | 13.37987 | 123.44579 | 29894 ft | 469 kts | 317° |
| 2026-04-20 07:23 | 13.42959 | 123.40253 | 29902 ft | 469 kts | 317° |
| 2026-04-20 07:23 | 13.47961 | 123.35900 | 29893 ft | 469 kts | 317° |
| 2026-04-20 07:24 | 13.52933 | 123.31569 | 29891 ft | 469 kts | 317° |
| 2026-04-20 07:24 | 13.57574 | 123.26927 | 29898 ft | 466 kts | 306° |
| 2026-04-20 07:25 | 13.60950 | 123.21264 | 29897 ft | 462 kts | 294° |
| 2026-04-20 07:25 | 13.63784 | 123.15301 | 29895 ft | 463 kts | 294° |
| 2026-04-20 07:26 | 13.66611 | 123.09393 | 29894 ft | 463 kts | 294° |
| 2026-04-20 07:26 | 13.69461 | 123.03425 | 29889 ft | 463 kts | 294° |
| 2026-04-20 07:27 | 13.72286 | 122.97500 | 29898 ft | 463 kts | 294° |
| 2026-04-20 07:27 | 13.75121 | 122.91549 | 29887 ft | 463 kts | 294° |
| 2026-04-20 07:28 | 13.77961 | 122.85582 | 29887 ft | 463 kts | 294° |
| 2026-04-20 07:28 | 13.80777 | 122.79661 | 29890 ft | 463 kts | 294° |
| 2026-04-20 07:29 | 13.83632 | 122.73655 | 29902 ft | 464 kts | 294° |
| 2026-04-20 07:29 | 13.86458 | 122.67702 | 29892 ft | 464 kts | 294° |
| 2026-04-20 07:30 | 13.89294 | 122.61725 | 29890 ft | 464 kts | 294° |
| 2026-04-20 07:30 | 13.92125 | 122.55755 | 29892 ft | 464 kts | 294° |
| 2026-04-20 07:31 | 13.94941 | 122.49811 | 29893 ft | 464 kts | 294° |
| 2026-04-20 07:31 | 13.97774 | 122.43826 | 29892 ft | 464 kts | 294° |
| 2026-04-20 07:32 | 14.00619 | 122.37812 | 29891 ft | 464 kts | 294° |
| 2026-04-20 07:32 | 14.03426 | 122.31876 | 29584 ft | 463 kts | 294° |
| 2026-04-20 07:32 | 14.04842 | 122.28878 | 29315 ft | 461 kts | 294° |
| 2026-04-20 07:33 | 14.05775 | 122.26902 | 29146 ft | 459 kts | 294° |
| 2026-04-20 07:33 | 14.07170 | 122.23949 | 28891 ft | 458 kts | 294° |
| 2026-04-20 07:33 | 14.09022 | 122.20023 | 28223 ft | 457 kts | 294° |
| 2026-04-20 07:33 | 14.10402 | 122.17096 | 27632 ft | 455 kts | 294° |
| 2026-04-20 07:34 | 14.11785 | 122.14163 | 27031 ft | 451 kts | 294° |
| 2026-04-20 07:34 | 14.12693 | 122.12238 | 26599 ft | 450 kts | 294° |
| 2026-04-20 07:34 | 14.14497 | 122.08410 | 25815 ft | 445 kts | 294° |
| 2026-04-20 07:35 | 14.17178 | 122.02714 | 24916 ft | 432 kts | 295° |
| 2026-04-20 07:35 | 14.18046 | 122.00872 | 24824 ft | 422 kts | 295° |
| 2026-04-20 07:35 | 14.19305 | 121.98198 | 24701 ft | 408 kts | 295° |
| 2026-04-20 07:35 | 14.20523 | 121.95610 | 24577 ft | 394 kts | 295° |
| 2026-04-20 07:36 | 14.21711 | 121.93084 | 24349 ft | 385 kts | 295° |
| 2026-04-20 07:36 | 14.22848 | 121.90622 | 23911 ft | 384 kts | 294° |
| 2026-04-20 07:36 | 14.23912 | 121.88081 | 23436 ft | 383 kts | 288° |
| 2026-04-20 07:36 | 14.24737 | 121.85494 | 23089 ft | 389 kts | 288° |
| 2026-04-20 07:37 | 14.25618 | 121.82763 | 22837 ft | 413 kts | 288° |
| 2026-04-20 07:37 | 14.26547 | 121.79868 | 22576 ft | 427 kts | 288° |
| 2026-04-20 07:37 | 14.27462 | 121.76991 | 22367 ft | 425 kts | 288° |
| 2026-04-20 07:37 | 14.28377 | 121.74089 | 22029 ft | 419 kts | 288° |
| 2026-04-20 07:38 | 14.29271 | 121.71241 | 21526 ft | 415 kts | 288° |
| 2026-04-20 07:38 | 14.30149 | 121.68439 | 21003 ft | 412 kts | 288° |
| 2026-04-20 07:38 | 14.30977 | 121.65608 | 20477 ft | 407 kts | 281° |
| 2026-04-20 07:38 | 14.31171 | 121.62727 | 19935 ft | 403 kts | 265° |
| 2026-04-20 07:39 | 14.30686 | 121.59898 | 19405 ft | 400 kts | 257° |
| 2026-04-20 07:39 | 14.30086 | 121.57119 | 18889 ft | 397 kts | 257° |
| 2026-04-20 07:39 | 14.29486 | 121.54364 | 18403 ft | 393 kts | 257° |
| 2026-04-20 07:39 | 14.28882 | 121.51614 | 17863 ft | 390 kts | 257° |
| 2026-04-20 07:40 | 14.28281 | 121.48895 | 17292 ft | 387 kts | 257° |
| 2026-04-20 07:40 | 14.27682 | 121.46193 | 16724 ft | 384 kts | 257° |
| 2026-04-20 07:40 | 14.27091 | 121.43536 | 16193 ft | 382 kts | 257° |
| 2026-04-20 07:40 | 14.26499 | 121.40880 | 15668 ft | 380 kts | 257° |
| 2026-04-20 07:41 | 14.25904 | 121.38223 | 15130 ft | 378 kts | 257° |
| 2026-04-20 07:41 | 14.25712 | 121.37364 | 14951 ft | 377 kts | 257° |
| 2026-04-20 07:41 | 14.24133 | 121.30373 | 13555 ft | 373 kts | 257° |
| 2026-04-20 07:42 | 14.23543 | 121.27771 | 13052 ft | 369 kts | 257° |
| 2026-04-20 07:42 | 14.22961 | 121.25201 | 12555 ft | 365 kts | 257° |
| 2026-04-20 07:42 | 14.22393 | 121.22685 | 12051 ft | 363 kts | 257° |
| 2026-04-20 07:42 | 14.21826 | 121.20152 | 11569 ft | 359 kts | 257° |
| 2026-04-20 07:43 | 14.21263 | 121.17619 | 10808 ft | 362 kts | 257° |
| 2026-04-20 07:43 | 14.20707 | 121.15077 | 9681 ft | 369 kts | 257° |
| 2026-04-20 07:43 | 14.20144 | 121.12459 | 8361 ft | 382 kts | 257° |
| 2026-04-20 07:43 | 14.19578 | 121.09758 | 7418 ft | 388 kts | 257° |
| 2026-04-20 07:44 | 14.19027 | 121.07083 | 7034 ft | 369 kts | 257° |
| 2026-04-20 07:44 | 14.18520 | 121.04594 | 6803 ft | 346 kts | 257° |
| 2026-04-20 07:44 | 14.18034 | 121.02204 | 6200 ft | 336 kts | 257° |
| 2026-04-20 07:44 | 14.17553 | 120.99831 | 5083 ft | 345 kts | 257° |
| 2026-04-20 07:45 | 14.17155 | 120.97401 | 4378 ft | 340 kts | 268° |
| 2026-04-20 07:45 | 14.17538 | 120.95054 | 3961 ft | 324 kts | 292° |
| 2026-04-20 07:45 | 14.18487 | 120.93026 | 3710 ft | 306 kts | 297° |
| 2026-04-20 07:45 | 14.19418 | 120.91134 | 3556 ft | 288 kts | 297° |
| 2026-04-20 07:46 | 14.20301 | 120.89341 | 3486 ft | 268 kts | 298° |
| 2026-04-20 07:46 | 14.21375 | 120.87917 | 3485 ft | 244 kts | 324° |
| 2026-04-20 07:46 | 14.22704 | 120.86940 | 3498 ft | 231 kts | 327° |
| 2026-04-20 07:46 | 14.24029 | 120.85988 | 3445 ft | 234 kts | 327° |
| 2026-04-20 07:47 | 14.25381 | 120.85030 | 3487 ft | 238 kts | 327° |
| 2026-04-20 07:47 | 14.26756 | 120.84059 | 3363 ft | 238 kts | 327° |
| 2026-04-20 07:47 | 14.28107 | 120.83098 | 3192 ft | 238 kts | 327° |
| 2026-04-20 07:47 | 14.29456 | 120.82151 | 3132 ft | 231 kts | 328° |
| 2026-04-20 07:48 | 14.30786 | 120.81226 | 2863 ft | 231 kts | 327° |
| 2026-04-20 07:48 | 14.32118 | 120.80294 | 2608 ft | 230 kts | 327° |
| 2026-04-20 07:48 | 14.33501 | 120.79558 | 2495 ft | 219 kts | 351° |
| 2026-04-20 07:48 | 14.35029 | 120.79671 | 2498 ft | 227 kts | 23° |
| 2026-04-20 07:49 | 14.36504 | 120.80363 | 2499 ft | 241 kts | 27° |
| 2026-04-20 07:49 | 14.37960 | 120.81118 | 2492 ft | 227 kts | 36° |
| 2026-04-20 07:49 | 14.38995 | 120.82216 | 2507 ft | 202 kts | 54° |
| 2026-04-20 07:49 | 14.39808 | 120.83302 | 2496 ft | 180 kts | 54° |
| 2026-04-20 07:50 | 14.40535 | 120.84269 | 2499 ft | 162 kts | 54° |
| 2026-04-20 07:50 | 14.41223 | 120.85154 | 2500 ft | 152 kts | 52° |
| 2026-04-20 07:50 | 14.41884 | 120.85970 | 2499 ft | 146 kts | 56° |
| 2026-04-20 07:50 | 14.42463 | 120.86842 | 2520 ft | 152 kts | 60° |
| 2026-04-20 07:51 | 14.43012 | 120.87774 | 2502 ft | 149 kts | 61° |
| 2026-04-20 07:51 | 14.43530 | 120.88716 | 2452 ft | 153 kts | 63° |
| 2026-04-20 07:51 | 14.44068 | 120.89676 | 2266 ft | 153 kts | 62° |
| 2026-04-20 07:51 | 14.44591 | 120.90631 | 2059 ft | 155 kts | 63° |
| 2026-04-20 07:52 | 14.45106 | 120.91558 | 1863 ft | 141 kts | 63° |
| 2026-04-20 07:52 | 14.45579 | 120.92415 | 1698 ft | 137 kts | 64° |
| 2026-04-20 07:52 | 14.46049 | 120.93268 | 1515 ft | 138 kts | 63° |
| 2026-04-20 07:52 | 14.46516 | 120.94108 | 1336 ft | 133 kts | 63° |
| 2026-04-20 07:53 | 14.46982 | 120.94952 | 1178 ft | 135 kts | 63° |
| 2026-04-20 07:53 | 14.47454 | 120.95804 | 1008 ft | 133 kts | 64° |
| 2026-04-20 07:53 | 14.47907 | 120.96623 | 828 ft | 135 kts | 64° |
| 2026-04-20 07:53 | 14.48366 | 120.97456 | 651 ft | 131 kts | 64° |
| 2026-04-20 07:54 | 14.48840 | 120.98301 | 432 ft | 137 kts | 62° |
| 2026-04-20 07:54 | 14.49285 | 120.99110 | 299 ft | 125 kts | 65° |
| 2026-04-20 07:54 | 14.49700 | 120.99869 | 159 ft | 121 kts | 64° |
| 2026-04-20 07:54 | 14.50097 | 121.00598 | 69 ft | 101 kts | 62° |
| 2026-04-20 07:55 | 14.50846 | 121.01777 | 40 ft | 29 kts | 34° |
| 2026-04-20 07:56 | 14.50896 | 121.01777 | 33 ft | 0 kts | 318° |
| 2026-04-20 07:56 | 14.50914 | 121.01761 | 31 ft | 12 kts | 316° |
| 2026-04-20 07:56 | 14.51003 | 121.01668 | 29 ft | 22 kts | 313° |
| 2026-04-20 07:56 | 14.51120 | 121.01550 | 29 ft | 25 kts | 314° |
| 2026-04-20 07:57 | 14.51182 | 121.01483 | 30 ft | 7 kts | 313° |
| 2026-04-20 07:57 | 14.51222 | 121.01439 | 31 ft | 9 kts | 323° |
| 2026-04-20 07:57 | 14.51290 | 121.01438 | 31 ft | 11 kts | 33° |
| 2026-04-20 07:57 | 14.51347 | 121.01506 | 32 ft | 13 kts | 50° |
| 2026-04-20 07:58 | 14.51415 | 121.01577 | 33 ft | 15 kts | 43° |
| 2026-04-20 07:58 | 14.51502 | 121.01647 | 33 ft | 17 kts | 38° |
| 2026-04-20 07:58 | 14.51586 | 121.01739 | 34 ft | 18 kts | 46° |
| 2026-04-20 07:58 | 14.51687 | 121.01779 | 35 ft | 16 kts | 340° |
| 2026-04-20 07:59 | 14.51741 | 121.01734 | 34 ft | 10 kts | 310° |
| 2026-04-20 07:59 | 14.51732 | 121.01695 | 36 ft | 6 kts | 214° |
| 2026-04-20 07:59 | 14.51698 | 121.01664 | 36 ft | 0 kts | 221° |